createdAt,value
2023-01-26T00:01:12.501Z,38.79
2023-01-26T00:03:40.669Z,38.93
2023-01-26T00:06:09.367Z,39.27
2023-01-26T00:08:38.428Z,39.22
2023-01-26T00:11:07.060Z,38.55
2023-01-26T00:13:35.364Z,38.98
2023-01-26T00:16:03.697Z,39.10
2023-01-26T00:18:33.179Z,39.09
2023-01-26T00:21:02.422Z,38.60
2023-01-26T00:23:30.869Z,38.55
2023-01-26T00:25:58.967Z,38.74
2023-01-26T00:28:27.172Z,39.27
2023-01-26T00:30:56.070Z,38.98
2023-01-26T00:33:24.709Z,39.07
2023-01-26T00:35:56.910Z,39.24
2023-01-26T00:38:25.010Z,39.38
2023-01-26T00:40:53.151Z,38.84
2023-01-26T00:43:22.083Z,39.21
2023-01-26T00:45:52.267Z,39.26
2023-01-26T00:48:23.591Z,38.89
2023-01-26T00:50:52.720Z,39.35
2023-01-26T00:53:22.192Z,39.06
2023-01-26T00:55:50.254Z,39.37
2023-01-26T00:58:18.382Z,39.51
2023-01-26T01:00:46.456Z,39.45
2023-01-26T01:03:14.623Z,38.85
2023-01-26T01:05:42.685Z,39.59
2023-01-26T01:08:13.799Z,38.89
2023-01-26T01:10:43.298Z,39.47
2023-01-26T01:13:11.367Z,38.81
2023-01-26T01:15:41.347Z,39.61
2023-01-26T01:18:09.474Z,39.62
2023-01-26T01:20:37.551Z,38.78
2023-01-26T01:23:05.731Z,39.54
2023-01-26T01:28:04.448Z,38.93
2023-01-26T01:30:32.483Z,39.43
2023-01-26T01:33:00.726Z,39.04
2023-01-26T01:35:29.527Z,38.97
2023-01-26T01:37:57.707Z,39.06
2023-01-26T01:40:25.742Z,38.99
2023-01-26T01:42:54.036Z,39.58
2023-01-26T01:45:37.324Z,39.01
2023-01-26T01:48:06.258Z,39.59
2023-01-26T01:50:37.476Z,39.52
2023-01-26T01:53:05.586Z,38.97
2023-01-26T01:55:34.586Z,39.11
2023-01-26T01:58:02.955Z,38.83
2023-01-26T02:00:32.452Z,39.83
2023-01-26T02:03:15.056Z,39.73
2023-01-26T02:05:56.200Z,39.43
2023-01-26T02:08:26.849Z,39.76
2023-01-26T02:10:56.318Z,39.43
2023-01-26T02:13:24.551Z,39.71
2023-01-26T02:15:54.039Z,39.42
2023-01-26T02:18:22.794Z,39.64
2023-01-26T02:20:52.010Z,39.22
2023-01-26T02:23:27.852Z,39.63
2023-01-26T02:26:06.770Z,39.06
2023-01-26T02:28:35.204Z,39.05
2023-01-26T02:31:03.824Z,39.63
2023-01-26T02:33:32.625Z,39.69
2023-01-26T02:36:03.872Z,39.81
2023-01-26T02:38:39.079Z,39.46
2023-01-26T02:41:09.372Z,39.27
2023-01-26T02:43:36.576Z,39.30
2023-01-26T02:46:05.524Z,39.66
2023-01-26T02:48:55.043Z,39.33
2023-01-26T02:51:24.071Z,39.37
2023-01-26T02:53:53.036Z,39.81
2023-01-26T02:56:21.665Z,39.81
2023-01-26T02:58:51.716Z,39.73
2023-01-26T03:01:19.814Z,39.14
2023-01-26T03:03:48.143Z,39.29
2023-01-26T03:06:16.456Z,39.23
2023-01-26T03:08:44.557Z,39.54
2023-01-26T03:11:12.743Z,39.28
2023-01-26T03:13:42.804Z,39.38
2023-01-26T03:16:12.046Z,39.63
2023-01-26T03:18:57.472Z,39.12
2023-01-26T03:21:43.858Z,40.01
2023-01-26T03:24:31.934Z,39.16
2023-01-26T03:27:19.762Z,39.78
2023-01-26T03:29:49.467Z,39.43
2023-01-26T03:32:17.652Z,39.82
2023-01-26T03:34:46.007Z,39.33
2023-01-26T03:37:14.100Z,39.90
2023-01-26T03:40:09.142Z,39.71
2023-01-26T03:42:58.764Z,39.91
2023-01-26T03:45:47.633Z,39.37
2023-01-26T03:48:33.125Z,39.75
2023-01-26T03:51:20.501Z,39.69
2023-01-26T03:54:06.030Z,39.73
2023-01-26T03:56:34.152Z,39.73
2023-01-26T03:59:10.082Z,39.94
2023-01-26T04:01:57.216Z,39.69
2023-01-26T04:04:42.668Z,39.94
2023-01-26T04:07:28.263Z,39.77
2023-01-26T04:09:56.463Z,39.49
2023-01-26T04:12:24.560Z,39.89
2023-01-26T04:15:27.216Z,39.58
2023-01-26T04:18:14.132Z,39.29
2023-01-26T04:20:59.874Z,39.92
2023-01-26T04:23:28.080Z,39.58
2023-01-26T04:25:56.992Z,39.90
2023-01-26T04:28:25.183Z,39.75
2023-01-26T04:30:53.410Z,39.23
2023-01-26T04:33:22.912Z,39.55
2023-01-26T04:35:51.332Z,39.68
2023-01-26T04:38:19.502Z,39.86
2023-01-26T04:40:54.480Z,39.85
2023-01-26T04:43:22.868Z,39.33
2023-01-26T04:45:59.185Z,39.53
2023-01-26T04:48:29.319Z,39.72
2023-01-26T04:50:57.574Z,40.03
2023-01-26T04:53:26.212Z,39.31
2023-01-26T04:55:55.322Z,39.38
2023-01-26T04:58:23.449Z,39.91
2023-01-26T05:00:53.046Z,39.85
2023-01-26T05:03:21.194Z,39.52
2023-01-26T05:05:51.123Z,39.80
2023-01-26T05:08:21.128Z,39.96
2023-01-26T05:10:49.858Z,40.03
2023-01-26T05:13:42.091Z,39.53
2023-01-26T05:16:18.434Z,40.12
2023-01-26T05:19:08.542Z,39.39
2023-01-26T05:22:00.187Z,40.17
2023-01-26T05:24:29.330Z,39.69
2023-01-26T05:27:20.493Z,40.00
2023-01-26T05:29:52.189Z,40.14
2023-01-26T05:32:22.211Z,40.19
2023-01-26T05:34:51.100Z,40.12
2023-01-26T05:37:21.859Z,39.47
2023-01-26T05:39:50.291Z,39.98
2023-01-26T05:42:18.452Z,39.29
2023-01-26T05:45:10.147Z,39.60
2023-01-26T05:47:40.111Z,39.14
2023-01-26T05:50:08.926Z,39.26
2023-01-26T05:52:38.542Z,39.09
2023-01-26T05:55:07.632Z,39.86
2023-01-26T05:57:36.460Z,39.37
2023-01-26T06:00:08.765Z,39.65
2023-01-26T06:02:48.479Z,39.20
2023-01-26T06:05:18.235Z,39.62
2023-01-26T06:07:51.418Z,38.93
2023-01-26T06:10:24.770Z,38.92
2023-01-26T06:13:18.838Z,39.08
2023-01-26T06:15:53.253Z,39.08
2023-01-26T06:18:25.924Z,39.76
2023-01-26T06:21:00.012Z,39.70
2023-01-26T06:23:29.716Z,39.46
2023-01-26T06:26:00.413Z,39.55
2023-01-26T06:28:28.999Z,39.74
2023-01-26T06:31:00.908Z,38.89
2023-01-26T06:33:30.215Z,38.85
2023-01-26T06:35:58.302Z,39.63
2023-01-26T06:38:26.526Z,38.82
2023-01-26T06:41:00.246Z,38.57
2023-01-26T06:43:28.502Z,39.16
2023-01-26T06:45:58.181Z,39.07
2023-01-26T06:48:26.798Z,38.56
2023-01-26T06:50:56.303Z,38.62
2023-01-26T06:53:30.720Z,38.74
2023-01-26T06:56:19.987Z,38.68
2023-01-26T06:59:26.545Z,39.22
2023-01-26T07:02:16.922Z,39.16
2023-01-26T07:04:45.079Z,39.15
2023-01-26T07:07:13.150Z,38.64
2023-01-26T07:09:41.415Z,39.02
2023-01-26T07:12:10.882Z,39.06
2023-01-26T07:14:39.015Z,38.45
2023-01-26T07:17:07.056Z,38.75
2023-01-26T07:19:35.154Z,38.82
2023-01-26T07:22:03.224Z,39.07
2023-01-26T07:24:31.365Z,38.43
2023-01-26T07:26:59.501Z,38.35
2023-01-26T07:29:29.021Z,38.63
2023-01-26T07:31:57.212Z,38.15
2023-01-26T07:34:25.398Z,38.49
2023-01-26T07:36:53.787Z,38.08
2023-01-26T07:39:21.916Z,38.63
2023-01-26T07:41:50.650Z,38.80
2023-01-26T07:44:46.571Z,38.02
2023-01-26T07:47:15.667Z,38.79
2023-01-26T07:49:43.707Z,38.12
2023-01-26T07:52:13.050Z,38.03
2023-01-26T07:54:41.203Z,38.65
2023-01-26T07:57:09.263Z,38.26
2023-01-26T07:59:37.376Z,38.33
2023-01-26T08:02:06.832Z,38.54
2023-01-26T08:04:35.024Z,38.10
2023-01-26T08:07:03.119Z,38.05
2023-01-26T08:09:31.320Z,38.25
2023-01-26T08:11:59.595Z,38.02
2023-01-26T08:14:38.137Z,38.57
2023-01-26T08:17:17.454Z,38.33
2023-01-26T08:19:45.829Z,38.09
2023-01-26T08:22:13.903Z,38.48
2023-01-26T08:24:42.022Z,38.42
2023-01-26T08:27:10.081Z,38.39
2023-01-26T08:29:38.195Z,37.83
2023-01-26T08:32:06.722Z,38.22
2023-01-26T08:34:36.174Z,37.71
2023-01-26T08:37:04.544Z,38.03
2023-01-26T08:39:32.587Z,38.12
2023-01-26T08:42:00.779Z,38.22
2023-01-26T08:44:28.891Z,37.96
2023-01-26T08:46:56.983Z,37.98
2023-01-26T08:49:25.055Z,37.31
2023-01-26T08:51:54.521Z,37.81
2023-01-26T08:54:22.586Z,37.86
2023-01-26T08:56:50.680Z,37.44
2023-01-26T08:59:18.767Z,37.26
2023-01-26T09:01:46.866Z,37.69
2023-01-26T09:04:14.923Z,37.29
2023-01-26T09:06:43.018Z,37.16
2023-01-26T09:09:14.379Z,37.78
2023-01-26T09:11:42.530Z,37.14
2023-01-26T09:14:10.563Z,37.87
2023-01-26T09:16:38.736Z,37.45
2023-01-26T09:19:06.835Z,37.13
2023-01-26T09:21:35.019Z,37.29
2023-01-26T09:24:03.288Z,37.02
2023-01-26T09:26:32.778Z,37.36
2023-01-26T09:29:00.854Z,37.03
2023-01-26T09:31:29.036Z,37.76
2023-01-26T09:33:57.219Z,36.97
2023-01-26T09:36:25.388Z,37.52
2023-01-26T09:38:54.191Z,36.89
2023-01-26T09:41:42.047Z,37.52
2023-01-26T09:44:11.232Z,37.39
2023-01-26T09:46:45.537Z,36.87
2023-01-26T09:49:15.134Z,37.07
2023-01-26T09:51:44.387Z,37.45
2023-01-26T09:54:18.149Z,37.33
2023-01-26T09:56:47.667Z,37.17
2023-01-26T09:59:21.156Z,36.75
2023-01-26T10:01:52.755Z,36.69
2023-01-26T10:04:29.849Z,37.35
2023-01-26T10:06:58.155Z,37.19
2023-01-26T10:09:47.983Z,37.38
2023-01-26T10:12:19.642Z,37.39
2023-01-26T10:14:50.558Z,37.12
2023-01-26T10:17:19.358Z,37.41
2023-01-26T10:19:49.659Z,37.56
2023-01-26T10:22:19.209Z,36.45
2023-01-26T10:24:49.094Z,37.41
2023-01-26T10:27:19.143Z,36.96
2023-01-26T10:29:47.283Z,36.88
2023-01-26T10:32:15.895Z,37.29
2023-01-26T10:34:44.450Z,37.41
2023-01-26T10:37:24.082Z,36.91
2023-01-26T10:39:59.950Z,37.31
2023-01-26T10:42:31.211Z,37.05
2023-01-26T10:45:00.402Z,37.67
2023-01-26T10:47:28.788Z,37.32
2023-01-26T10:50:14.567Z,36.82
2023-01-26T10:52:57.587Z,37.14
2023-01-26T10:55:26.082Z,37.50
2023-01-26T10:57:55.782Z,37.73
2023-01-26T11:00:25.803Z,37.43
2023-01-26T11:02:55.190Z,37.18
2023-01-26T11:05:23.735Z,37.19
2023-01-26T11:07:54.354Z,37.60
2023-01-26T11:10:28.097Z,37.18
2023-01-26T11:13:24.970Z,37.27
2023-01-26T11:16:04.486Z,37.71
2023-01-26T11:18:37.338Z,37.60
2023-01-26T11:21:07.587Z,37.39
2023-01-26T11:23:42.137Z,37.49
2023-01-26T11:26:25.889Z,36.99
2023-01-26T11:29:02.554Z,37.42
2023-01-26T11:31:39.407Z,36.70
2023-01-26T11:34:13.915Z,36.70
2023-01-26T11:36:45.327Z,37.04
2023-01-26T11:39:17.211Z,37.40
2023-01-26T11:41:52.414Z,37.15
2023-01-26T11:44:35.519Z,36.99
2023-01-26T11:47:12.152Z,36.62
2023-01-26T11:49:53.594Z,36.59
2023-01-26T11:52:25.462Z,37.07
2023-01-26T11:55:03.580Z,37.24
2023-01-26T11:57:34.369Z,36.89
2023-01-26T12:00:05.827Z,37.38
2023-01-26T12:02:41.350Z,37.50
2023-01-26T12:05:14.639Z,36.85
2023-01-26T12:07:54.655Z,37.32
2023-01-26T12:10:25.878Z,37.25
2023-01-26T12:12:56.451Z,37.06
2023-01-26T12:15:29.882Z,36.58
2023-01-26T12:18:00.476Z,36.98
2023-01-26T12:20:30.594Z,37.31
2023-01-26T12:23:02.246Z,36.84
2023-01-26T12:25:33.664Z,36.74
2023-01-26T12:28:07.583Z,37.20
2023-01-26T12:30:39.424Z,36.99
2023-01-26T12:33:08.715Z,36.62
2023-01-26T12:35:59.791Z,36.70
2023-01-26T12:38:34.847Z,36.87
2023-01-26T12:41:07.291Z,37.10
2023-01-26T12:43:53.159Z,36.58
2023-01-26T12:46:22.898Z,36.34
2023-01-26T12:48:51.804Z,37.09
2023-01-26T12:51:23.112Z,36.34
2023-01-26T12:53:55.433Z,36.41
2023-01-26T12:56:25.288Z,36.22
2023-01-26T12:58:53.741Z,36.65
2023-01-26T13:01:24.304Z,36.91
2023-01-26T13:03:54.491Z,36.77
2023-01-26T13:06:24.666Z,36.45
2023-01-26T13:09:00.702Z,36.45
2023-01-26T13:11:45.813Z,36.31
2023-01-26T13:14:31.966Z,36.06
2023-01-26T13:17:16.446Z,35.95
2023-01-26T13:19:54.134Z,36.29
2023-01-26T13:22:40.339Z,35.88
2023-01-26T13:25:15.352Z,35.94
2023-01-26T13:27:46.608Z,36.73
2023-01-26T13:30:50.448Z,36.17
2023-01-26T13:33:22.720Z,36.45
2023-01-26T13:35:51.912Z,36.73
2023-01-26T13:38:22.669Z,36.55
2023-01-26T13:40:51.055Z,36.43
2023-01-26T13:43:27.059Z,36.87
2023-01-26T13:46:00.680Z,36.66
2023-01-26T13:48:44.041Z,36.50
2023-01-26T13:51:15.026Z,36.18
2023-01-26T13:53:44.681Z,36.83
2023-01-26T13:56:25.000Z,36.92
2023-01-26T13:58:54.110Z,36.64
2023-01-26T14:01:22.319Z,37.01
2023-01-26T14:04:06.396Z,36.99
2023-01-26T14:06:35.340Z,36.28
2023-01-26T14:09:03.381Z,36.28
2023-01-26T14:11:32.254Z,36.97
2023-01-26T14:14:01.245Z,36.72
2023-01-26T14:16:30.428Z,36.80
2023-01-26T14:19:07.508Z,36.20
2023-01-26T14:21:45.745Z,36.70
2023-01-26T14:24:14.002Z,36.28
2023-01-26T14:26:42.111Z,36.93
2023-01-26T14:29:12.652Z,36.96
2023-01-26T14:31:40.782Z,36.60
2023-01-26T14:34:11.933Z,37.04
2023-01-26T14:36:40.317Z,36.60
2023-01-26T14:39:17.056Z,36.80
2023-01-26T14:41:45.320Z,37.08
2023-01-26T14:44:13.395Z,36.19
2023-01-26T14:46:50.722Z,36.44
2023-01-26T14:49:21.396Z,37.06
2023-01-26T14:51:50.012Z,36.78
2023-01-26T14:54:19.870Z,36.59
2023-01-26T14:56:48.494Z,36.63
2023-01-26T14:59:22.159Z,36.67
2023-01-26T15:01:50.349Z,37.02
2023-01-26T15:04:24.753Z,36.72
2023-01-26T15:06:52.902Z,36.21
2023-01-26T15:09:22.413Z,36.28
2023-01-26T15:12:10.999Z,36.09
2023-01-26T15:14:39.784Z,35.88
2023-01-26T15:17:07.897Z,36.01
2023-01-26T15:19:43.332Z,36.46
2023-01-26T15:22:22.936Z,36.17
2023-01-26T15:25:01.358Z,36.11
2023-01-26T15:27:32.722Z,35.74
2023-01-26T15:30:01.697Z,36.15
2023-01-26T15:32:30.519Z,36.06
2023-01-26T15:35:08.701Z,35.85
2023-01-26T15:37:36.962Z,35.78
2023-01-26T15:40:05.791Z,35.75
2023-01-26T15:42:33.929Z,36.16
2023-01-26T15:45:02.009Z,35.88
2023-01-26T15:47:30.179Z,35.82
2023-01-26T15:49:58.255Z,36.18
2023-01-26T15:52:30.457Z,36.18
2023-01-26T15:54:58.676Z,36.47
2023-01-26T15:57:26.711Z,35.93
2023-01-26T15:59:54.807Z,35.92
2023-01-26T16:02:22.900Z,35.93
2023-01-26T16:04:51.073Z,36.18
2023-01-26T16:07:19.692Z,35.95
2023-01-26T16:09:51.032Z,36.53
2023-01-26T16:12:30.811Z,36.02
2023-01-26T16:14:59.178Z,36.61
2023-01-26T16:17:27.242Z,36.17
2023-01-26T16:19:55.379Z,36.29
2023-01-26T16:22:23.496Z,36.38
2023-01-26T16:24:53.008Z,36.61
2023-01-26T16:27:21.705Z,36.01
2023-01-26T16:29:49.799Z,36.20
2023-01-26T16:32:28.570Z,36.48
2023-01-26T16:34:56.741Z,36.05
2023-01-26T16:37:24.786Z,36.36
2023-01-26T16:39:54.348Z,36.38
2023-01-26T16:42:22.591Z,36.26
2023-01-26T16:44:50.784Z,36.84
2023-01-26T16:47:18.877Z,36.57
2023-01-26T16:49:47.549Z,36.48
2023-01-26T16:52:15.701Z,36.80
2023-01-26T16:54:45.674Z,36.68
2023-01-26T16:57:15.251Z,37.02
2023-01-26T16:59:43.448Z,36.93
2023-01-26T17:02:18.835Z,36.74
2023-01-26T17:04:47.025Z,36.95
2023-01-26T17:07:15.101Z,36.48
2023-01-26T17:09:43.251Z,36.87
2023-01-26T17:12:11.539Z,37.00
2023-01-26T17:14:41.075Z,37.03
2023-01-26T17:17:10.121Z,36.63
2023-01-26T17:19:38.264Z,36.97
2023-01-26T17:22:06.388Z,36.95
2023-01-26T17:24:34.518Z,36.43
2023-01-26T17:27:02.605Z,37.00
2023-01-26T17:29:30.859Z,36.41
2023-01-26T17:32:01.012Z,36.76
2023-01-26T17:34:29.251Z,37.03
2023-01-26T17:36:58.780Z,37.19
2023-01-26T17:39:27.087Z,37.71
2023-01-26T17:41:55.185Z,37.46
2023-01-26T17:44:23.670Z,37.93
2023-01-26T17:46:51.744Z,38.35
2023-01-26T17:49:22.327Z,38.29
2023-01-26T17:51:50.453Z,38.25
2023-01-26T17:54:18.608Z,38.47
2023-01-26T17:56:46.789Z,38.19
2023-01-26T17:59:14.838Z,38.18
2023-01-26T18:01:42.998Z,38.65
2023-01-26T18:04:11.083Z,38.73
2023-01-26T18:06:40.742Z,38.99
2023-01-26T18:09:08.818Z,39.37
2023-01-26T18:11:36.954Z,39.95
2023-01-26T18:14:05.459Z,39.43
2023-01-26T18:16:33.844Z,40.30
2023-01-26T18:19:04.476Z,40.34
2023-01-26T18:21:34.190Z,40.28
2023-01-26T18:24:04.919Z,40.75
2023-01-26T18:26:34.059Z,39.97
2023-01-26T18:29:02.383Z,40.23
2023-01-26T18:31:31.435Z,40.37
2023-01-26T18:34:00.129Z,41.10
2023-01-26T18:36:29.025Z,41.13
2023-01-26T18:38:57.917Z,40.99
2023-01-26T18:41:27.756Z,41.42
2023-01-26T18:43:57.905Z,40.94
2023-01-26T18:46:26.518Z,41.56
2023-01-26T18:48:54.844Z,41.24
2023-01-26T18:51:23.178Z,41.66
2023-01-26T18:53:51.239Z,41.39
2023-01-26T18:56:19.433Z,41.17
2023-01-26T18:58:48.923Z,41.73
2023-01-26T19:01:18.849Z,41.88
2023-01-26T19:03:47.834Z,41.73
2023-01-26T19:06:18.372Z,41.67
2023-01-26T19:08:46.633Z,42.08
2023-01-26T19:11:15.306Z,41.22
2023-01-26T19:13:45.530Z,41.30
2023-01-26T19:16:20.794Z,42.07
2023-01-26T19:18:49.983Z,42.17
2023-01-26T19:21:21.543Z,41.62
2023-01-26T19:23:49.793Z,41.96
2023-01-26T19:26:19.481Z,42.00
2023-01-26T19:28:50.409Z,41.80
2023-01-26T19:31:20.360Z,41.61
2023-01-26T19:33:51.880Z,42.27
2023-01-26T19:36:20.136Z,42.07
2023-01-26T19:38:48.202Z,41.83
2023-01-26T19:41:16.502Z,42.29
2023-01-26T19:43:44.686Z,42.31
2023-01-26T19:46:13.186Z,41.81
2023-01-26T19:48:42.730Z,41.86
2023-01-26T19:51:12.546Z,42.08
2023-01-26T19:53:41.455Z,41.91
2023-01-26T19:56:10.284Z,42.20
2023-01-26T19:58:38.371Z,42.54
2023-01-26T20:01:07.212Z,41.87
2023-01-26T20:03:35.302Z,42.00
2023-01-26T20:06:05.502Z,42.56
2023-01-26T20:08:33.760Z,41.98
2023-01-26T20:11:05.122Z,41.94
2023-01-26T20:13:33.356Z,41.46
2023-01-26T20:16:01.396Z,41.90
2023-01-26T20:18:29.514Z,41.84
2023-01-26T20:21:00.603Z,41.80
2023-01-26T20:23:30.439Z,41.53
2023-01-26T20:26:02.982Z,42.05
2023-01-26T20:28:31.212Z,41.97
2023-01-26T20:31:05.351Z,42.07
2023-01-26T20:33:33.547Z,41.97
2023-01-26T20:36:01.637Z,41.94
2023-01-26T20:38:31.923Z,41.82
2023-01-26T20:41:00.173Z,41.58
2023-01-26T20:43:28.203Z,41.89
2023-01-26T20:45:56.382Z,41.74
2023-01-26T20:48:24.502Z,41.14
2023-01-26T20:50:53.268Z,40.83
2023-01-26T20:53:22.076Z,41.16
2023-01-26T20:55:58.088Z,40.72
2023-01-26T20:58:26.239Z,41.03
2023-01-26T21:00:54.338Z,40.89
2023-01-26T21:03:22.483Z,41.31
2023-01-26T21:05:50.634Z,41.46
2023-01-26T21:08:18.758Z,41.06
2023-01-26T21:10:47.103Z,40.72
2023-01-26T21:13:16.572Z,40.96
2023-01-26T21:15:44.659Z,40.82
2023-01-26T21:18:12.702Z,41.29
2023-01-26T21:20:40.847Z,40.78
2023-01-26T21:23:08.886Z,40.65
2023-01-26T21:25:37.022Z,41.25
2023-01-26T21:28:05.396Z,41.26
2023-01-26T21:30:34.958Z,41.14
2023-01-26T21:33:03.178Z,40.47
2023-01-26T21:35:31.219Z,40.67
2023-01-26T21:38:00.141Z,41.17
2023-01-26T21:40:28.434Z,40.88
2023-01-26T21:42:56.578Z,41.01
2023-01-26T21:45:42.285Z,40.53
2023-01-26T21:48:31.937Z,40.82
2023-01-26T21:51:17.605Z,40.97
2023-01-26T21:53:45.785Z,40.54
2023-01-26T21:56:14.754Z,40.58
2023-01-26T21:58:59.844Z,41.09
2023-01-26T22:01:28.121Z,40.79
2023-01-26T22:03:57.847Z,41.03
2023-01-26T22:06:25.962Z,40.74
2023-01-26T22:08:54.160Z,40.57
2023-01-26T22:11:22.306Z,40.80
2023-01-26T22:13:50.423Z,41.03
2023-01-26T22:16:18.498Z,40.83
2023-01-26T22:18:46.710Z,40.49
2023-01-26T22:21:16.363Z,41.23
2023-01-26T22:23:44.419Z,41.15
2023-01-26T22:26:13.656Z,40.65
2023-01-26T22:28:42.068Z,40.39
2023-01-26T22:31:11.407Z,40.83
2023-01-26T22:33:39.681Z,40.87
2023-01-26T22:36:08.835Z,40.63
2023-01-26T22:38:38.983Z,40.64
2023-01-26T22:41:07.488Z,40.51
2023-01-26T22:43:35.784Z,41.04
2023-01-26T22:46:04.369Z,40.79
2023-01-26T22:48:32.607Z,41.00
2023-01-26T22:51:07.026Z,41.32
2023-01-26T22:53:35.227Z,41.14
2023-01-26T22:56:05.068Z,41.19
2023-01-26T22:58:33.704Z,41.41
2023-01-26T23:01:06.913Z,41.08
2023-01-26T23:03:35.153Z,40.73
2023-01-26T23:06:03.473Z,41.14
2023-01-26T23:08:31.631Z,41.37
2023-01-26T23:11:08.381Z,41.31
2023-01-26T23:13:36.519Z,40.89
2023-01-26T23:16:04.721Z,41.27
2023-01-26T23:18:32.923Z,41.27
2023-01-26T23:21:01.166Z,41.15
2023-01-26T23:23:29.744Z,41.55
2023-01-26T23:25:57.884Z,41.39
2023-01-26T23:28:28.150Z,40.95
2023-01-26T23:30:56.851Z,41.36
2023-01-26T23:33:25.677Z,41.30
2023-01-26T23:35:53.802Z,41.11
2023-01-26T23:38:22.120Z,41.61
2023-01-26T23:40:50.532Z,41.05
2023-01-26T23:43:18.637Z,41.04
2023-01-26T23:45:49.722Z,41.31
2023-01-26T23:48:17.952Z,41.00
2023-01-26T23:50:45.969Z,41.22
2023-01-26T23:53:14.195Z,40.90
2023-01-26T23:55:42.435Z,40.80
2023-01-26T23:58:10.932Z,41.03
